Time;durP1;ratioP1;P1;durP2;ratioP2;P2;SDS_P1;SDS_P2;PMS_P1;PMS_P2;Temp;Humidity;BMP_temperature;BMP_pressure;BME280_temperature;BME280_humidity;BME280_pressure;Samples;Min_cycle;Max_cycle;Signal;HPM_P1;HPM_P2
2022/10/16 00:01:15;;;;;;;6.37;2.87;;;;;;;;;;5009413;28;20301;-40
2022/10/16 00:03:43;;;;;;;4.47;2.60;;;;;;;;;;5007415;28;20238;-41
2022/10/16 00:06:11;;;;;;;4.00;2.47;;;;;;;;;;5014762;28;20206;-44
2022/10/16 00:08:39;;;;;;;3.13;2.90;;;;;;;;;;5015063;28;20209;-40
2022/10/16 00:11:07;;;;;;;5.40;3.13;;;;;;;;;;5007363;28;20232;-39
2022/10/16 00:13:36;;;;;;;6.10;2.80;;;;;;;;;;5022896;28;20218;-44
2022/10/16 00:16:06;;;;;;;2.53;2.17;;;;;;;;;;5012402;28;20240;-44
2022/10/16 00:18:33;;;;;;;4.77;2.47;;;;;;;;;;5003085;28;20557;-43
2022/10/16 00:21:03;;;;;;;4.67;2.50;;;;;;;;;;5010114;28;20240;-41
2022/10/16 00:23:30;;;;;;;6.30;2.40;;;;;;;;;;5022587;28;20213;-40
2022/10/16 00:25:58;;;;;;;4.27;2.57;;;;;;;;;;5017733;28;20200;-41
2022/10/16 00:28:26;;;;;;;3.97;2.70;;;;;;;;;;5016897;28;20203;-42
2022/10/16 00:30:54;;;;;;;4.43;2.30;;;;;;;;;;5013687;28;20230;-39
2022/10/16 00:33:22;;;;;;;6.83;2.57;;;;;;;;;;5012316;28;20313;-41
2022/10/16 00:35:49;;;;;;;6.53;2.30;;;;;;;;;;5028054;28;20228;-43
2022/10/16 00:38:17;;;;;;;2.23;2.03;;;;;;;;;;5019207;28;20211;-35
2022/10/16 00:40:44;;;;;;;5.23;2.70;;;;;;;;;;5012367;28;20230;-43
2022/10/16 00:43:15;;;;;;;2.70;2.47;;;;;;;;;;5006395;28;20724;-42
2022/10/16 00:45:43;;;;;;;4.93;2.47;;;;;;;;;;5028577;28;20203;-40
2022/10/16 00:48:15;;;;;;;2.87;2.33;;;;;;;;;;5020114;28;20212;-41
2022/10/16 00:50:43;;;;;;;2.97;2.40;;;;;;;;;;5023951;28;20663;-39
2022/10/16 00:53:12;;;;;;;2.83;2.47;;;;;;;;;;5015955;28;20214;-39
2022/10/16 00:55:39;;;;;;;2.27;2.07;;;;;;;;;;5015595;28;20226;-42
2022/10/16 00:58:06;;;;;;;3.23;2.40;;;;;;;;;;5023986;28;20199;-43
2022/10/16 01:00:33;;;;;;;4.73;2.70;;;;;;;;;;5013130;28;20240;-43
2022/10/16 01:03:01;;;;;;;4.33;2.43;;;;;;;;;;4998970;28;20211;-43
2022/10/16 01:05:32;;;;;;;6.33;2.37;;;;;;;;;;5014818;28;20202;-40
2022/10/16 01:08:03;;;;;;;4.20;2.30;;;;;;;;;;5020040;28;20203;-41
2022/10/16 01:10:35;;;;;;;4.57;2.37;;;;;;;;;;5012123;28;20236;-41
2022/10/16 01:13:06;;;;;;;2.23;2.03;;;;;;;;;;5003805;28;20207;-43
2022/10/16 01:15:36;;;;;;;2.47;2.27;;;;;;;;;;5024702;28;20223;-44
2022/10/16 01:18:08;;;;;;;8.60;2.33;;;;;;;;;;5027545;28;20207;-43
2022/10/16 01:20:39;;;;;;;3.20;2.50;;;;;;;;;;5022798;28;20232;-39
2022/10/16 01:23:10;;;;;;;3.27;2.10;;;;;;;;;;5031405;28;20309;-44
2022/10/16 01:25:52;;;;;;;3.53;2.20;;;;;;;;;;5031655;28;20585;-44
2022/10/16 01:28:22;;;;;;;3.20;1.83;;;;;;;;;;5017051;28;20276;-43
2022/10/16 01:30:50;;;;;;;2.33;2.00;;;;;;;;;;5024648;28;20223;-43
2022/10/16 01:33:20;;;;;;;2.47;1.80;;;;;;;;;;5017779;28;20212;-40
2022/10/16 01:35:49;;;;;;;4.67;2.03;;;;;;;;;;5011635;28;20229;-38
2022/10/16 01:38:18;;;;;;;2.27;1.93;;;;;;;;;;5024040;28;20484;-42
2022/10/16 01:40:47;;;;;;;7.87;2.20;;;;;;;;;;5025262;28;20223;-42
2022/10/16 01:43:16;;;;;;;4.07;1.90;;;;;;;;;;5005510;28;20218;-44
2022/10/16 01:45:45;;;;;;;2.73;1.77;;;;;;;;;;5026520;28;20203;-41
2022/10/16 01:48:13;;;;;;;3.83;1.73;;;;;;;;;;5014012;28;20512;-43
2022/10/16 01:50:42;;;;;;;3.17;1.90;;;;;;;;;;5002666;28;20226;-45
2022/10/16 01:53:11;;;;;;;5.87;2.10;;;;;;;;;;5013565;28;20202;-34
2022/10/16 01:55:43;;;;;;;1.90;1.80;;;;;;;;;;5026561;28;20224;-40
2022/10/16 01:58:11;;;;;;;2.20;1.67;;;;;;;;;;5009651;28;20202;-42
2022/10/16 02:00:39;;;;;;;3.57;1.70;;;;;;;;;;5022681;28;20293;-44
2022/10/16 02:03:07;;;;;;;2.97;1.73;;;;;;;;;;5010605;28;20208;-43
2022/10/16 02:05:38;;;;;;;4.83;1.80;;;;;;;;;;5005678;28;20207;-39
2022/10/16 02:08:06;;;;;;;2.83;1.90;;;;;;;;;;5021235;28;20203;-44
2022/10/16 02:10:35;;;;;;;1.90;1.70;;;;;;;;;;5027029;28;20407;-43
2022/10/16 02:13:05;;;;;;;2.10;1.93;;;;;;;;;;5018148;28;20528;-43
2022/10/16 02:15:32;;;;;;;2.00;1.73;;;;;;;;;;5025248;28;20256;-44
2022/10/16 02:17:59;;;;;;;2.40;1.70;;;;;;;;;;5016365;28;20213;-44
2022/10/16 02:20:29;;;;;;;1.70;1.60;;;;;;;;;;5016041;28;20235;-39
2022/10/16 02:22:57;;;;;;;1.57;1.47;;;;;;;;;;5018837;28;20589;-44
2022/10/16 02:25:26;;;;;;;3.03;1.60;;;;;;;;;;5010787;28;20208;-40
2022/10/16 02:27:55;;;;;;;1.70;1.60;;;;;;;;;;5009173;28;20294;-44
2022/10/16 02:30:25;;;;;;;6.93;1.80;;;;;;;;;;5019398;28;20226;-42
2022/10/16 02:32:53;;;;;;;3.10;1.90;;;;;;;;;;5013372;28;20211;-43
2022/10/16 02:35:22;;;;;;;4.40;1.73;;;;;;;;;;5011560;28;20210;-46
2022/10/16 02:37:51;;;;;;;6.23;1.80;;;;;;;;;;5019448;28;20288;-44
2022/10/16 02:40:19;;;;;;;2.30;1.77;;;;;;;;;;5022398;28;20291;-38
2022/10/16 02:42:46;;;;;;;3.67;2.00;;;;;;;;;;5018877;28;20223;-45
2022/10/16 02:45:13;;;;;;;2.17;1.70;;;;;;;;;;5026011;28;20197;-45
2022/10/16 02:47:40;;;;;;;2.07;1.70;;;;;;;;;;5004848;28;20208;-41
2022/10/16 02:50:08;;;;;;;2.90;1.50;;;;;;;;;;5008121;28;20226;-44
2022/10/16 02:52:35;;;;;;;4.50;1.23;;;;;;;;;;5021936;28;20233;-39
2022/10/16 02:55:03;;;;;;;1.90;1.80;;;;;;;;;;5029678;28;20211;-43
2022/10/16 02:57:31;;;;;;;5.03;1.90;;;;;;;;;;5013754;28;20536;-38
2022/10/16 02:59:58;;;;;;;3.23;1.47;;;;;;;;;;5026900;28;20250;-41
2022/10/16 03:02:26;;;;;;;1.47;1.37;;;;;;;;;;5007198;28;20211;-46
2022/10/16 03:04:53;;;;;;;1.60;1.40;;;;;;;;;;5008587;28;20208;-44
2022/10/16 03:07:20;;;;;;;4.73;1.40;;;;;;;;;;5019633;28;20201;-41
2022/10/16 03:09:47;;;;;;;2.90;1.40;;;;;;;;;;5012910;28;20231;-43
2022/10/16 03:12:16;;;;;;;2.97;1.50;;;;;;;;;;5009007;28;20199;-41
2022/10/16 03:14:43;;;;;;;4.10;1.43;;;;;;;;;;5010380;28;20202;-39
2022/10/16 03:17:10;;;;;;;1.40;1.30;;;;;;;;;;5027737;28;20231;-46
2022/10/16 03:19:37;;;;;;;4.70;1.50;;;;;;;;;;5003787;28;20219;-40
2022/10/16 03:22:04;;;;;;;1.40;1.30;;;;;;;;;;5017867;28;20198;-42
2022/10/16 03:24:32;;;;;;;4.03;1.60;;;;;;;;;;5009888;28;20214;-44
2022/10/16 03:26:59;;;;;;;1.23;1.23;;;;;;;;;;5006896;28;20201;-45
2022/10/16 03:29:29;;;;;;;1.70;1.17;;;;;;;;;;5016960;28;20213;-41
2022/10/16 03:31:56;;;;;;;1.30;1.30;;;;;;;;;;5010526;28;20203;-42
2022/10/16 03:34:24;;;;;;;1.70;1.00;;;;;;;;;;5013093;28;20228;-40
2022/10/16 03:36:51;;;;;;;1.07;1.07;;;;;;;;;;5009893;28;20227;-43
2022/10/16 03:39:18;;;;;;;3.87;1.40;;;;;;;;;;5010104;28;20580;-35
2022/10/16 03:41:46;;;;;;;1.00;1.00;;;;;;;;;;5015106;28;20592;-40
2022/10/16 03:44:13;;;;;;;1.33;1.20;;;;;;;;;;5025485;28;20207;-46
2022/10/16 03:46:41;;;;;;;1.93;1.20;;;;;;;;;;5011063;28;20199;-43
2022/10/16 03:49:09;;;;;;;2.30;1.17;;;;;;;;;;5010969;28;20591;-40
2022/10/16 03:51:36;;;;;;;3.00;1.30;;;;;;;;;;5018205;28;20226;-39
2022/10/16 03:54:03;;;;;;;2.93;1.03;;;;;;;;;;5009625;28;20662;-43
2022/10/16 03:56:30;;;;;;;1.70;1.30;;;;;;;;;;5012097;28;20311;-41
2022/10/16 03:58:57;;;;;;;1.40;1.30;;;;;;;;;;5018405;28;20207;-43
2022/10/16 04:01:24;;;;;;;1.10;1.10;;;;;;;;;;5015809;28;20234;-38
2022/10/16 04:03:53;;;;;;;1.00;0.90;;;;;;;;;;5019484;28;20213;-43
2022/10/16 04:06:20;;;;;;;2.13;1.10;;;;;;;;;;5027087;28;20199;-43
2022/10/16 04:08:47;;;;;;;8.50;1.30;;;;;;;;;;5029319;28;20257;-46
2022/10/16 04:11:14;;;;;;;3.07;1.40;;;;;;;;;;5032752;28;20232;-40
2022/10/16 04:13:42;;;;;;;1.53;1.20;;;;;;;;;;5013128;28;20324;-41
2022/10/16 04:16:09;;;;;;;5.37;1.17;;;;;;;;;;5017812;28;20210;-44
2022/10/16 04:18:37;;;;;;;1.47;1.20;;;;;;;;;;5013869;28;20262;-40
2022/10/16 04:21:06;;;;;;;3.77;1.10;;;;;;;;;;5014694;28;20305;-43
2022/10/16 04:23:34;;;;;;;2.73;1.27;;;;;;;;;;5017675;28;20221;-40
2022/10/16 04:26:01;;;;;;;2.73;1.30;;;;;;;;;;5012574;28;20207;-45
2022/10/16 04:28:29;;;;;;;4.20;1.20;;;;;;;;;;5025272;28;20669;-41
2022/10/16 04:30:56;;;;;;;2.30;1.00;;;;;;;;;;5015454;28;20306;-43
2022/10/16 04:33:23;;;;;;;1.47;1.10;;;;;;;;;;5020103;28;20203;-40
2022/10/16 04:35:57;;;;;;;2.43;1.43;;;;;;;;;;5019728;28;20214;-39
2022/10/16 04:38:26;;;;;;;3.50;1.33;;;;;;;;;;5025610;28;20582;-39
2022/10/16 04:40:53;;;;;;;4.63;1.10;;;;;;;;;;5021932;28;20234;-41
2022/10/16 04:43:20;;;;;;;1.37;1.27;;;;;;;;;;5011929;28;20199;-37
2022/10/16 04:45:47;;;;;;;1.27;1.20;;;;;;;;;;5026274;28;20211;-43
2022/10/16 04:48:14;;;;;;;1.07;1.07;;;;;;;;;;5016836;28;20214;-43
2022/10/16 04:50:42;;;;;;;4.93;1.20;;;;;;;;;;5015968;28;20267;-42
2022/10/16 04:53:09;;;;;;;2.50;1.30;;;;;;;;;;5032290;28;20194;-40
2022/10/16 04:55:38;;;;;;;8.03;1.73;;;;;;;;;;5012191;28;20214;-44
2022/10/16 04:58:05;;;;;;;3.20;1.63;;;;;;;;;;5009369;28;20252;-43
2022/10/16 05:00:32;;;;;;;1.40;1.30;;;;;;;;;;5032303;28;20403;-44
2022/10/16 05:03:00;;;;;;;11.43;1.60;;;;;;;;;;5023731;28;20207;-44
2022/10/16 05:05:27;;;;;;;4.27;1.20;;;;;;;;;;5025741;28;20202;-42
2022/10/16 05:07:54;;;;;;;5.93;1.53;;;;;;;;;;5014483;28;20210;-43
2022/10/16 05:10:21;;;;;;;1.67;1.40;;;;;;;;;;5011902;28;20229;-43
2022/10/16 05:12:51;;;;;;;1.00;0.90;;;;;;;;;;5013257;28;20211;-41
2022/10/16 05:15:18;;;;;;;2.83;1.00;;;;;;;;;;5021434;28;20202;-42
2022/10/16 05:20:13;;;;;;;1.30;1.20;;;;;;;;;;5059995;28;20225;-43
2022/10/16 05:22:40;;;;;;;1.20;1.10;;;;;;;;;;5070403;28;20327;-43
2022/10/16 05:25:08;;;;;;;3.87;1.00;;;;;;;;;;5055841;28;20664;-42
2022/10/16 05:27:35;;;;;;;5.60;1.30;;;;;;;;;;5057422;28;20684;-40
2022/10/16 05:30:04;;;;;;;1.10;1.10;;;;;;;;;;5077279;28;20229;-41
2022/10/16 05:32:31;;;;;;;4.47;2.47;;;;;;;;;;5067288;28;20201;-45
2022/10/16 05:34:59;;;;;;;3.17;1.10;;;;;;;;;;5069861;28;20213;-41
2022/10/16 05:37:26;;;;;;;1.23;1.10;;;;;;;;;;5081769;28;20682;-38
2022/10/16 05:39:54;;;;;;;0.80;0.80;;;;;;;;;;5070894;28;20399;-42
2022/10/16 05:42:21;;;;;;;3.13;1.30;;;;;;;;;;5066332;28;20209;-42
2022/10/16 05:44:48;;;;;;;1.10;1.00;;;;;;;;;;5075400;28;20644;-42
2022/10/16 05:47:16;;;;;;;1.17;1.10;;;;;;;;;;5088108;28;20196;-43
2022/10/16 05:49:43;;;;;;;1.33;1.23;;;;;;;;;;5064639;28;20229;-41
2022/10/16 05:52:10;;;;;;;4.50;1.37;;;;;;;;;;5084491;28;20662;-34
2022/10/16 05:54:38;;;;;;;1.00;1.00;;;;;;;;;;5094047;28;20206;-41
2022/10/16 05:57:05;;;;;;;5.43;0.90;;;;;;;;;;5071326;28;20231;-40
2022/10/16 05:59:32;;;;;;;2.97;1.00;;;;;;;;;;5088036;28;20216;-41
2022/10/16 06:01:59;;;;;;;2.97;1.03;;;;;;;;;;5074963;28;20205;-39
2022/10/16 06:04:28;;;;;;;1.80;1.10;;;;;;;;;;5062840;28;20203;-42
2022/10/16 06:06:55;;;;;;;4.07;1.10;;;;;;;;;;5080028;28;20196;-41
2022/10/16 06:09:22;;;;;;;2.27;1.30;;;;;;;;;;5093633;28;20211;-38
2022/10/16 06:11:49;;;;;;;1.17;1.07;;;;;;;;;;5072609;28;20557;-42
2022/10/16 06:14:26;;;;;;;4.13;1.20;;;;;;;;;;5069634;28;20234;-41
2022/10/16 06:16:53;;;;;;;2.60;1.63;;;;;;;;;;5072640;28;20199;-38
2022/10/16 06:19:20;;;;;;;2.57;1.20;;;;;;;;;;5064117;28;20209;-38
2022/10/16 06:21:49;;;;;;;4.40;1.40;;;;;;;;;;5076314;28;20221;-41
2022/10/16 06:24:16;;;;;;;1.40;1.30;;;;;;;;;;5078871;28;20207;-39
2022/10/16 06:26:43;;;;;;;3.70;1.30;;;;;;;;;;5072140;28;20236;-43
2022/10/16 06:29:10;;;;;;;5.33;1.07;;;;;;;;;;5060320;28;20197;-44
2022/10/16 06:31:37;;;;;;;1.30;1.20;;;;;;;;;;5066844;28;20782;-41
2022/10/16 06:34:08;;;;;;;3.40;1.20;;;;;;;;;;5060943;28;20216;-40
2022/10/16 06:36:36;;;;;;;1.17;1.17;;;;;;;;;;5069419;28;20431;-42
2022/10/16 06:39:05;;;;;;;4.03;1.63;;;;;;;;;;5068839;28;20223;-38
2022/10/16 06:41:32;;;;;;;1.87;1.57;;;;;;;;;;5060040;28;20219;-43
2022/10/16 06:43:59;;;;;;;3.37;1.43;;;;;;;;;;5060102;28;20220;-41
2022/10/16 06:46:27;;;;;;;4.47;2.10;;;;;;;;;;5070872;28;20196;-40
2022/10/16 06:48:54;;;;;;;2.67;1.40;;;;;;;;;;5061669;28;20307;-38
2022/10/16 06:51:22;;;;;;;2.43;1.20;;;;;;;;;;5076567;28;20216;-43
2022/10/16 06:53:57;;;;;;;1.40;1.03;;;;;;;;;;5074000;28;20209;-42
2022/10/16 06:56:26;;;;;;;2.57;1.40;;;;;;;;;;5054654;28;20281;-37
2022/10/16 06:58:54;;;;;;;2.97;1.27;;;;;;;;;;5057765;28;20224;-43
2022/10/16 07:01:22;;;;;;;1.93;1.43;;;;;;;;;;5068420;28;20319;-40
2022/10/16 07:03:50;;;;;;;1.67;1.53;;;;;;;;;;5073668;28;20295;-44
2022/10/16 07:06:17;;;;;;;5.70;1.50;;;;;;;;;;5088093;28;20291;-38
2022/10/16 07:08:45;;;;;;;2.90;1.50;;;;;;;;;;5076232;28;20722;-35
2022/10/16 07:11:14;;;;;;;2.23;1.00;;;;;;;;;;5069106;28;20228;-41
2022/10/16 07:13:43;;;;;;;1.87;1.30;;;;;;;;;;5068218;28;20212;-45
2022/10/16 07:16:12;;;;;;;4.80;1.20;;;;;;;;;;5079027;28;20258;-42
2022/10/16 07:18:40;;;;;;;5.80;1.93;;;;;;;;;;5066146;28;20257;-42
2022/10/16 07:21:07;;;;;;;3.90;1.83;;;;;;;;;;5072001;28;20263;-36
2022/10/16 07:23:34;;;;;;;4.27;1.60;;;;;;;;;;5071216;28;20646;-39
2022/10/16 07:26:03;;;;;;;1.30;1.20;;;;;;;;;;5071633;28;20207;-44
2022/10/16 07:28:31;;;;;;;1.67;1.17;;;;;;;;;;5067592;28;20249;-39
2022/10/16 07:31:06;;;;;;;1.33;1.30;;;;;;;;;;5071145;28;20221;-44
2022/10/16 07:33:34;;;;;;;6.90;1.50;;;;;;;;;;5064845;28;20201;-44
2022/10/16 07:36:01;;;;;;;4.30;1.43;;;;;;;;;;5073343;28;20227;-35
2022/10/16 07:38:28;;;;;;;3.17;1.57;;;;;;;;;;5071754;28;20221;-39
2022/10/16 07:40:58;;;;;;;2.50;1.43;;;;;;;;;;5075865;28;20216;-42
2022/10/16 07:43:26;;;;;;;1.40;1.30;;;;;;;;;;5071258;28;20764;-39
2022/10/16 07:45:53;;;;;;;3.50;1.30;;;;;;;;;;5076570;28;20219;-38
2022/10/16 07:48:23;;;;;;;2.40;1.47;;;;;;;;;;5075097;28;20207;-41
2022/10/16 07:50:50;;;;;;;1.43;1.33;;;;;;;;;;5074265;28;20279;-42
2022/10/16 07:53:17;;;;;;;2.50;1.77;;;;;;;;;;5074175;28;20200;-44
2022/10/16 07:55:44;;;;;;;3.17;1.50;;;;;;;;;;5067146;28;20206;-41
2022/10/16 07:58:12;;;;;;;2.03;1.33;;;;;;;;;;5075386;28;20235;-41
2022/10/16 08:00:39;;;;;;;10.40;1.83;;;;;;;;;;5066638;28;20296;-39
2022/10/16 08:03:06;;;;;;;3.30;1.60;;;;;;;;;;5067086;28;20201;-42
2022/10/16 08:05:35;;;;;;;3.87;1.53;;;;;;;;;;5072155;28;20203;-42
2022/10/16 08:08:02;;;;;;;8.47;2.00;;;;;;;;;;5079950;28;20205;-43
2022/10/16 08:10:31;;;;;;;3.47;1.63;;;;;;;;;;5062879;28;20398;-46
2022/10/16 08:12:59;;;;;;;1.67;1.57;;;;;;;;;;5072164;28;20273;-39
2022/10/16 08:15:26;;;;;;;2.00;1.80;;;;;;;;;;5081782;28;20197;-45
2022/10/16 08:18:00;;;;;;;4.33;1.70;;;;;;;;;;5080874;28;20216;-39
2022/10/16 08:20:28;;;;;;;4.70;3.20;;;;;;;;;;5070606;28;20250;-43
2022/10/16 08:22:57;;;;;;;1.90;1.80;;;;;;;;;;5082788;28;20214;-42
2022/10/16 08:25:24;;;;;;;4.50;1.43;;;;;;;;;;5074723;28;20216;-43
2022/10/16 08:27:52;;;;;;;4.67;2.03;;;;;;;;;;5067508;28;20205;-41
2022/10/16 08:30:20;;;;;;;4.27;1.33;;;;;;;;;;5068315;28;20227;-44
2022/10/16 08:32:47;;;;;;;4.27;1.33;;;;;;;;;;5069144;28;20215;-43
2022/10/16 08:35:14;;;;;;;1.43;1.20;;;;;;;;;;5070489;28;20207;-44
2022/10/16 08:37:42;;;;;;;4.37;1.30;;;;;;;;;;5078429;28;20232;-43
2022/10/16 08:40:17;;;;;;;3.90;1.37;;;;;;;;;;5074391;28;20570;-38
2022/10/16 08:42:49;;;;;;;2.90;1.53;;;;;;;;;;5072158;28;20207;-45
2022/10/16 08:45:27;;;;;;;2.93;1.60;;;;;;;;;;5079040;28;20249;-41
2022/10/16 08:48:02;;;;;;;5.80;1.50;;;;;;;;;;5081482;28;20258;-40
2022/10/16 08:50:30;;;;;;;2.70;1.33;;;;;;;;;;5067962;28;20227;-46
2022/10/16 08:52:58;;;;;;;5.00;1.73;;;;;;;;;;5082255;28;20201;-42
2022/10/16 08:55:35;;;;;;;2.67;1.53;;;;;;;;;;5071978;28;20292;-42
2022/10/16 08:58:03;;;;;;;1.53;1.43;;;;;;;;;;5069085;28;20213;-38
2022/10/16 09:00:30;;;;;;;1.93;1.63;;;;;;;;;;5079453;28;20221;-38
2022/10/16 09:03:04;;;;;;;2.27;1.60;;;;;;;;;;5065491;28;20207;-39
2022/10/16 09:05:40;;;;;;;1.87;1.30;;;;;;;;;;5066482;28;20221;-44
2022/10/16 09:08:11;;;;;;;8.60;2.37;;;;;;;;;;5074200;28;20208;-43
2022/10/16 09:10:45;;;;;;;2.37;1.70;;;;;;;;;;5073877;28;20224;-39
2022/10/16 09:13:19;;;;;;;3.83;2.40;;;;;;;;;;5058623;28;20208;-38
2022/10/16 09:15:50;;;;;;;3.00;1.90;;;;;;;;;;5074235;28;20204;-41
2022/10/16 09:18:19;;;;;;;5.97;1.97;;;;;;;;;;5070940;28;20214;-37
2022/10/16 09:20:51;;;;;;;7.93;2.10;;;;;;;;;;5073739;28;20231;-41
2022/10/16 09:23:19;;;;;;;2.07;1.90;;;;;;;;;;5083248;28;20203;-42
2022/10/16 09:25:49;;;;;;;7.43;2.17;;;;;;;;;;5061062;28;20214;-40
2022/10/16 09:28:17;;;;;;;5.53;2.07;;;;;;;;;;5077713;28;20200;-39
2022/10/16 09:30:44;;;;;;;2.10;1.90;;;;;;;;;;5085317;28;20266;-46
2022/10/16 09:33:12;;;;;;;2.47;1.93;;;;;;;;;;5078445;28;20205;-38
2022/10/16 09:35:40;;;;;;;2.00;1.90;;;;;;;;;;5076634;28;20204;-37
2022/10/16 09:38:08;;;;;;;1.90;1.80;;;;;;;;;;5092855;28;20221;-38
2022/10/16 09:40:36;;;;;;;7.97;2.20;;;;;;;;;;5094376;28;20224;-44
2022/10/16 09:43:10;;;;;;;4.63;2.20;;;;;;;;;;5061672;28;20208;-44
2022/10/16 09:45:37;;;;;;;1.70;1.60;;;;;;;;;;5077168;28;20273;-43
2022/10/16 09:48:11;;;;;;;3.27;2.13;;;;;;;;;;5067014;28;20205;-43
2022/10/16 09:50:39;;;;;;;2.10;1.57;;;;;;;;;;5072823;28;20231;-41
2022/10/16 09:53:07;;;;;;;2.00;1.50;;;;;;;;;;5081111;28;20216;-38
2022/10/16 09:55:34;;;;;;;1.63;1.30;;;;;;;;;;5073532;28;20205;-38
2022/10/16 09:58:02;;;;;;;1.60;1.50;;;;;;;;;;5060301;28;20206;-38
2022/10/16 10:00:31;;;;;;;1.40;1.30;;;;;;;;;;5064657;28;20220;-40
2022/10/16 10:02:59;;;;;;;2.10;1.40;;;;;;;;;;5067986;28;20255;-44
2022/10/16 10:05:27;;;;;;;3.70;1.50;;;;;;;;;;5077178;28;20230;-38
2022/10/16 10:07:56;;;;;;;3.67;1.30;;;;;;;;;;5093108;28;20658;-40
2022/10/16 10:10:27;;;;;;;1.40;1.30;;;;;;;;;;5093421;28;20243;-43
2022/10/16 10:12:56;;;;;;;1.63;1.30;;;;;;;;;;5083076;28;20201;-36
2022/10/16 10:15:24;;;;;;;7.13;1.30;;;;;;;;;;5067485;28;20209;-38
2022/10/16 10:17:53;;;;;;;1.57;1.07;;;;;;;;;;5080460;28;20220;-42
2022/10/16 10:20:34;;;;;;;2.93;1.43;;;;;;;;;;5071299;28;20316;-42
2022/10/16 10:23:01;;;;;;;2.43;1.40;;;;;;;;;;5085490;28;20200;-41
2022/10/16 10:25:38;;;;;;;2.80;1.40;;;;;;;;;;5068323;28;20202;-40
2022/10/16 10:28:18;;;;;;;4.47;1.30;;;;;;;;;;5062157;28;20200;-45
2022/10/16 10:30:49;;;;;;;1.50;1.37;;;;;;;;;;5072493;28;20221;-42
2022/10/16 10:33:22;;;;;;;2.07;1.50;;;;;;;;;;5070181;28;20192;-42
2022/10/16 10:35:54;;;;;;;2.93;1.60;;;;;;;;;;5080958;28;20216;-41
2022/10/16 10:38:25;;;;;;;2.50;1.60;;;;;;;;;;5072225;28;20204;-45
2022/10/16 10:40:56;;;;;;;1.60;1.50;;;;;;;;;;5071918;28;20771;-46
2022/10/16 10:43:30;;;;;;;4.10;1.60;;;;;;;;;;5060268;28;20202;-40
2022/10/16 10:46:01;;;;;;;4.10;1.50;;;;;;;;;;5068009;28;20201;-40
2022/10/16 10:48:47;;;;;;;1.50;1.40;;;;;;;;;;5068405;28;20201;-39
2022/10/16 10:51:18;;;;;;;1.50;1.40;;;;;;;;;;5079067;28;20228;-42
2022/10/16 10:53:48;;;;;;;5.47;1.60;;;;;;;;;;5075584;28;20201;-42
2022/10/16 10:56:18;;;;;;;2.50;1.10;;;;;;;;;;5052413;28;20202;-42
2022/10/16 10:58:55;;;;;;;3.83;1.20;;;;;;;;;;5071395;28;20216;-42
2022/10/16 11:01:27;;;;;;;2.80;1.33;;;;;;;;;;5064529;28;20213;-41
2022/10/16 11:04:12;;;;;;;3.10;1.40;;;;;;;;;;5066164;28;20284;-40
2022/10/16 11:06:42;;;;;;;1.70;1.40;;;;;;;;;;5067458;28;20207;-43
2022/10/16 11:09:12;;;;;;;7.03;1.23;;;;;;;;;;5091636;28;20725;-45
2022/10/16 11:11:42;;;;;;;1.50;1.40;;;;;;;;;;5078252;28;20231;-40
2022/10/16 11:14:14;;;;;;;3.67;1.40;;;;;;;;;;5069267;28;20201;-42
2022/10/16 11:19:14;;;;;;;2.13;1.37;;;;;;;;;;5155749;22;20732;-32
2022/10/16 11:21:48;;;;;;;1.67;1.57;;;;;;;;;;5067711;28;20220;-30
2022/10/16 11:24:17;;;;;;;2.20;1.57;;;;;;;;;;5063936;28;20196;-29
2022/10/16 11:26:45;;;;;;;1.77;1.17;;;;;;;;;;5066165;28;20276;-30
2022/10/16 11:29:16;;;;;;;1.30;1.20;;;;;;;;;;5064965;28;20204;-32
2022/10/16 11:31:47;;;;;;;2.77;1.20;;;;;;;;;;5075177;28;20224;-29
2022/10/16 11:34:17;;;;;;;2.07;1.53;;;;;;;;;;5063899;28;20209;-31
2022/10/16 11:36:46;;;;;;;3.73;1.20;;;;;;;;;;5084261;28;20200;-30
2022/10/16 11:39:20;;;;;;;4.40;1.40;;;;;;;;;;5052101;28;20229;-28
2022/10/16 11:41:49;;;;;;;2.40;1.50;;;;;;;;;;5050324;28;20209;-31
2022/10/16 11:44:20;;;;;;;4.07;1.57;;;;;;;;;;5074345;28;20207;-33
2022/10/16 11:46:52;;;;;;;1.37;1.23;;;;;;;;;;5083638;28;20212;-32
2022/10/16 11:49:23;;;;;;;3.70;1.40;;;;;;;;;;5076247;28;20250;-33
2022/10/16 11:51:57;;;;;;;1.47;1.37;;;;;;;;;;5075968;28;20255;-33
2022/10/16 11:54:29;;;;;;;1.30;1.20;;;;;;;;;;5078525;28;20208;-30
2022/10/16 11:57:04;;;;;;;4.37;1.27;;;;;;;;;;5069908;28;20201;-31
2022/10/16 11:59:34;;;;;;;3.63;1.20;;;;;;;;;;5065797;28;20247;-30
2022/10/16 12:02:10;;;;;;;7.20;1.30;;;;;;;;;;5078261;28;20391;-31
2022/10/16 12:04:45;;;;;;;1.63;1.10;;;;;;;;;;5068178;28;20579;-35
2022/10/16 12:07:15;;;;;;;1.97;1.30;;;;;;;;;;5066804;28;20188;-29
2022/10/16 12:09:43;;;;;;;2.40;1.20;;;;;;;;;;5077156;28;20249;-34
2022/10/16 12:12:25;;;;;;;1.37;1.27;;;;;;;;;;5064179;28;20295;-31
2022/10/16 12:15:19;;;;;;;6.87;1.20;;;;;;;;;;5071931;28;20244;-34
2022/10/16 12:17:47;;;;;;;0.90;0.90;;;;;;;;;;5082593;28;20217;-33
2022/10/16 12:20:26;;;;;;;2.07;1.70;;;;;;;;;;5062284;28;20331;-31
2022/10/16 12:22:55;;;;;;;5.23;1.30;;;;;;;;;;5076128;28;20554;-35
2022/10/16 12:25:24;;;;;;;3.17;1.67;;;;;;;;;;5071445;28;20209;-28
2022/10/16 12:27:58;;;;;;;1.30;1.20;;;;;;;;;;5065149;28;20281;-32
2022/10/16 12:30:29;;;;;;;1.37;1.00;;;;;;;;;;5079483;28;20228;-34
2022/10/16 12:32:58;;;;;;;1.20;1.10;;;;;;;;;;5070534;28;20263;-32
2022/10/16 12:35:28;;;;;;;5.97;1.23;;;;;;;;;;5082796;28;20206;-30
2022/10/16 12:37:55;;;;;;;4.53;1.23;;;;;;;;;;5094346;28;20201;-31
2022/10/16 12:40:27;;;;;;;5.97;1.20;;;;;;;;;;5093956;28;20337;-30
2022/10/16 12:42:55;;;;;;;1.13;1.13;;;;;;;;;;5071416;28;20290;-30
2022/10/16 12:45:26;;;;;;;2.30;1.20;;;;;;;;;;5073698;28;20240;-32
2022/10/16 12:47:55;;;;;;;2.67;1.30;;;;;;;;;;5067900;28;20201;-28
2022/10/16 12:50:30;;;;;;;2.13;1.17;;;;;;;;;;5067395;28;20222;-30
2022/10/16 12:52:57;;;;;;;2.63;1.10;;;;;;;;;;5084784;28;20208;-33
2022/10/16 12:55:27;;;;;;;2.20;1.00;;;;;;;;;;5081353;28;20214;-31
2022/10/16 12:58:10;;;;;;;1.97;1.17;;;;;;;;;;5070969;28;20251;-31
2022/10/16 13:00:43;;;;;;;2.47;1.10;;;;;;;;;;5069462;28;20230;-31
2022/10/16 13:03:32;;;;;;;3.80;2.07;;;;;;;;;;5074446;28;20513;-30
2022/10/16 13:06:09;;;;;;;2.30;1.00;;;;;;;;;;5071781;28;20209;-31
2022/10/16 13:08:53;;;;;;;1.17;1.00;;;;;;;;;;5075547;28;20192;-32
2022/10/16 13:11:24;;;;;;;2.40;1.30;;;;;;;;;;5074643;28;20226;-33
2022/10/16 13:14:01;;;;;;;0.90;0.90;;;;;;;;;;5070371;28;20217;-29
2022/10/16 13:16:32;;;;;;;2.03;1.00;;;;;;;;;;5079774;28;20234;-31
2022/10/16 13:19:05;;;;;;;2.13;1.17;;;;;;;;;;5073535;28;20222;-33
2022/10/16 13:21:40;;;;;;;1.20;1.10;;;;;;;;;;5080365;28;20235;-32
2022/10/16 13:24:13;;;;;;;2.03;1.07;;;;;;;;;;5074194;28;20189;-31
2022/10/16 13:26:44;;;;;;;2.37;0.97;;;;;;;;;;5074287;28;20189;-32
2022/10/16 13:29:12;;;;;;;0.80;0.80;;;;;;;;;;5062393;28;20205;-31
2022/10/16 13:31:40;;;;;;;1.20;1.20;;;;;;;;;;5089062;28;20225;-32
2022/10/16 13:34:08;;;;;;;2.17;1.10;;;;;;;;;;5079065;28;20221;-34
2022/10/16 13:36:44;;;;;;;1.13;1.03;;;;;;;;;;5081262;28;20217;-30
2022/10/16 13:39:13;;;;;;;4.90;1.00;;;;;;;;;;5094162;28;20200;-30
2022/10/16 13:41:42;;;;;;;1.77;1.03;;;;;;;;;;5092911;28;20256;-32
2022/10/16 13:44:14;;;;;;;2.63;1.20;;;;;;;;;;5071259;28;20206;-33
2022/10/16 13:46:41;;;;;;;5.17;1.00;;;;;;;;;;5077410;28;20515;-32
2022/10/16 13:49:14;;;;;;;1.07;0.90;;;;;;;;;;5071666;28;20202;-30
2022/10/16 13:51:42;;;;;;;2.63;1.10;;;;;;;;;;5078086;28;20317;-33
2022/10/16 13:54:11;;;;;;;1.33;1.23;;;;;;;;;;5066308;28;20233;-33
2022/10/16 13:56:40;;;;;;;3.40;1.40;;;;;;;;;;5068074;28;20209;-32
2022/10/16 13:59:08;;;;;;;4.73;1.13;;;;;;;;;;5072842;28;20313;-30
2022/10/16 14:01:37;;;;;;;1.20;1.07;;;;;;;;;;5068036;28;20240;-32
2022/10/16 14:04:05;;;;;;;3.00;1.50;;;;;;;;;;5069365;28;20262;-28
2022/10/16 14:06:33;;;;;;;1.07;1.00;;;;;;;;;;5083961;28;20204;-29
2022/10/16 14:09:03;;;;;;;5.57;1.37;;;;;;;;;;5074287;28;20212;-34
2022/10/16 14:11:30;;;;;;;1.50;1.40;;;;;;;;;;5066174;28;20217;-33
2022/10/16 14:13:58;;;;;;;1.50;1.40;;;;;;;;;;5066683;28;20198;-34
2022/10/16 14:16:27;;;;;;;5.10;1.10;;;;;;;;;;5084922;28;20283;-33
2022/10/16 14:18:57;;;;;;;4.33;1.50;;;;;;;;;;5069509;28;20300;-34
2022/10/16 14:21:26;;;;;;;2.00;1.53;;;;;;;;;;5075198;28;20225;-32
2022/10/16 14:23:53;;;;;;;4.40;1.50;;;;;;;;;;5073440;28;20243;-33
2022/10/16 14:26:23;;;;;;;3.67;1.27;;;;;;;;;;5067501;28;20207;-32
2022/10/16 14:29:02;;;;;;;1.43;1.33;;;;;;;;;;5065515;28;20240;-31
2022/10/16 14:31:37;;;;;;;3.40;1.40;;;;;;;;;;5079778;28;20576;-31
2022/10/16 14:34:04;;;;;;;3.00;1.50;;;;;;;;;;5064459;28;20208;-33
2022/10/16 14:36:31;;;;;;;1.73;1.40;;;;;;;;;;5074297;28;20205;-31
2022/10/16 14:39:01;;;;;;;8.10;1.50;;;;;;;;;;5090813;28;20207;-31
2022/10/16 14:41:30;;;;;;;1.63;1.50;;;;;;;;;;5093391;28;20232;-32
2022/10/16 14:43:58;;;;;;;7.07;2.10;;;;;;;;;;5068824;28;20209;-32
2022/10/16 14:46:30;;;;;;;6.63;1.70;;;;;;;;;;5078650;28;20197;-32
2022/10/16 14:49:01;;;;;;;5.13;2.03;;;;;;;;;;5064489;28;20212;-30
2022/10/16 14:51:28;;;;;;;2.77;1.20;;;;;;;;;;5080081;28;20225;-30
2022/10/16 14:53:55;;;;;;;2.87;1.60;;;;;;;;;;5071848;28;20205;-34
2022/10/16 14:56:24;;;;;;;2.13;1.47;;;;;;;;;;5065979;28;20293;-31
2022/10/16 14:58:53;;;;;;;2.53;1.10;;;;;;;;;;5070501;28;20201;-32
2022/10/16 15:01:21;;;;;;;1.07;1.00;;;;;;;;;;5072711;28;20320;-29